METAR AND TAF INFORMATION
METAR FOR KAEJ
ADDS - METARS form results

(0345 UTC 18 January 2022)
Data provider http://aviationweather.gov/metar/data/
 
METAR text: KAEJ 180335Z AUTO 32006KT 10SM CLR 03/M14 A3002 RMK AO2 T00341145
Conditions at: KAEJ (BUENA VISTA , CO, US) observed 0335 UTC 18 January 2022
Temperature: 3.4°C (38°F)
Dewpoint: -14.5°C ( 6°F) [RH = 26%]
Pressure (altimeter): 30.02 inches Hg (1016.7 mb)
Winds: from the NW (320 degrees) at 7 MPH (6 knots; 3.1 m/s)
Visibility: 10 or more miles (16+ km)
Ceiling: at least 12,000 feet AGL
Clouds: sky clear below 12,000 feet AGL
Weather: automated observation with no human augmentation;
there may or may not be significant weather present at this time

METAR text: KAEJ 180315Z AUTO 32007KT 10SM CLR 02/M14 A3002 RMK AO2 T00231138
Conditions at: KAEJ (BUENA VISTA , CO, US) observed 0315 UTC 18 January 2022
Temperature: 2.3°C (36°F)
Dewpoint: -13.8°C ( 7°F) [RH = 29%]
Pressure (altimeter): 30.02 inches Hg (1016.7 mb)
Winds: from the NW (320 degrees) at 8 MPH (7 knots; 3.6 m/s)
Visibility: 10 or more miles (16+ km)
Ceiling: at least 12,000 feet AGL
Clouds: sky clear below 12,000 feet AGL
Weather: automated observation with no human augmentation;
there may or may not be significant weather present at this time

METAR text: KAEJ 180255Z AUTO 33009G18KT 280V030 10SM CLR 05/M15 A3002 RMK AO2 T00531155
Conditions at: KAEJ (BUENA VISTA , CO, US) observed 0255 UTC 18 January 2022
Temperature: 5.3°C (42°F)
Dewpoint: -15.5°C ( 4°F) [RH = 21%]
Pressure (altimeter): 30.02 inches Hg (1016.7 mb)
Winds: from the NNW (330 degrees) at 10 MPH (9 knots; 4.6 m/s)
gusting to 21 MPH (18 knots; 9.3 m/s)
Visibility: 10 or more miles (16+ km)
Ceiling: at least 12,000 feet AGL
Clouds: sky clear below 12,000 feet AGL
Weather: automated observation with no human augmentation;
there may or may not be significant weather present at this time

 AIRPORT MAP

 RUNWAY INFORMATION
Runway 15 Runway length 8300 ft Runway width 75 ft
Runway elevation 7946 ft Runway displaced threshold 0 ft Runway heading 162
Runway 33 Runway length 8300 ft Runway width 75 ft
Runway elevation 7899 ft Runway displaced threshold 0 ft Runway heading 342

 AIRPORT FREQUENCIES
Type AWOS Name AWOS 3 Frequency 132.925 MHZ
Type CNTR Name DENVER CNT Frequency 119.85 MHZ
Type UNIC Name CTAF/UNICO Frequency 122.8 MHZ

 AIRPORT NEAR NAVIGATION AIDS

-